sensor_id;sensor_type;location;lat;lon;timestamp;P1;durP1;ratioP1;P2;durP2;ratioP2
9506;SDS011;4791;47.528;9.372;2023-03-13T00:14:11;1.93;;;1.00;;
9506;SDS011;4791;47.528;9.372;2023-03-13T00:29:12;2.67;;;1.10;;
9506;SDS011;4791;47.528;9.372;2023-03-13T00:44:17;2.77;;;1.20;;
9506;SDS011;4791;47.528;9.372;2023-03-13T00:59:19;1.90;;;0.97;;
9506;SDS011;4791;47.528;9.372;2023-03-13T01:14:22;2.03;;;1.00;;
9506;SDS011;4791;47.528;9.372;2023-03-13T01:29:27;2.87;;;1.20;;
9506;SDS011;4791;47.528;9.372;2023-03-13T01:44:46;1.30;;;0.90;;
9506;SDS011;4791;47.528;9.372;2023-03-13T02:14:57;2.30;;;0.93;;
9506;SDS011;4791;47.528;9.372;2023-03-13T02:29:58;1.43;;;0.73;;
9506;SDS011;4791;47.528;9.372;2023-03-13T02:45:01;1.67;;;1.02;;
9506;SDS011;4791;47.528;9.372;2023-03-13T03:00:05;3.83;;;1.17;;
9506;SDS011;4791;47.528;9.372;2023-03-13T03:15:11;2.20;;;1.00;;
9506;SDS011;4791;47.528;9.372;2023-03-13T03:30:15;3.97;;;1.40;;
9506;SDS011;4791;47.528;9.372;2023-03-13T03:45:15;2.13;;;0.95;;
9506;SDS011;4791;47.528;9.372;2023-03-13T04:00:18;2.70;;;1.03;;
9506;SDS011;4791;47.528;9.372;2023-03-13T04:15:23;2.30;;;1.20;;
9506;SDS011;4791;47.528;9.372;2023-03-13T04:30:24;1.80;;;1.20;;
9506;SDS011;4791;47.528;9.372;2023-03-13T04:45:24;2.37;;;0.90;;
9506;SDS011;4791;47.528;9.372;2023-03-13T05:00:24;1.90;;;1.10;;
9506;SDS011;4791;47.528;9.372;2023-03-13T05:15:25;2.72;;;1.33;;
9506;SDS011;4791;47.528;9.372;2023-03-13T05:30:28;1.67;;;1.03;;
9506;SDS011;4791;47.528;9.372;2023-03-13T05:45:31;1.60;;;1.03;;
9506;SDS011;4791;47.528;9.372;2023-03-13T06:00:34;1.80;;;0.97;;
9506;SDS011;4791;47.528;9.372;2023-03-13T06:15:37;2.30;;;1.10;;
9506;SDS011;4791;47.528;9.372;2023-03-13T06:30:37;1.73;;;1.20;;
9506;SDS011;4791;47.528;9.372;2023-03-13T06:45:37;2.00;;;1.40;;
9506;SDS011;4791;47.528;9.372;2023-03-13T07:00:40;2.00;;;1.20;;
9506;SDS011;4791;47.528;9.372;2023-03-13T07:15:43;2.17;;;1.30;;
9506;SDS011;4791;47.528;9.372;2023-03-13T07:30:48;1.87;;;1.20;;
9506;SDS011;4791;47.528;9.372;2023-03-13T07:45:52;2.20;;;1.00;;
9506;SDS011;4791;47.528;9.372;2023-03-13T08:00:53;1.98;;;1.05;;
9506;SDS011;4791;47.528;9.372;2023-03-13T08:16:10;1.80;;;0.97;;
9506;SDS011;4791;47.528;9.372;2023-03-13T08:31:16;1.53;;;0.80;;
9506;SDS011;4791;47.528;9.372;2023-03-13T08:46:23;1.70;;;0.90;;
9506;SDS011;4791;47.528;9.372;2023-03-13T09:01:25;2.20;;;0.80;;
9506;SDS011;4791;47.528;9.372;2023-03-13T09:16:31;1.53;;;0.73;;
9506;SDS011;4791;47.528;9.372;2023-03-13T09:31:32;0.60;;;0.40;;
9506;SDS011;4791;47.528;9.372;2023-03-13T09:46:47;0.67;;;0.43;;
9506;SDS011;4791;47.528;9.372;2023-03-13T10:01:54;1.00;;;0.40;;
9506;SDS011;4791;47.528;9.372;2023-03-13T10:32:09;0.85;;;0.40;;
9506;SDS011;4791;47.528;9.372;2023-03-13T12:02:54;0.40;;;0.30;;
9506;SDS011;4791;47.528;9.372;2023-03-13T12:33:04;1.40;;;0.55;;
9506;SDS011;4791;47.528;9.372;2023-03-13T12:48:31;0.30;;;0.25;;
9506;SDS011;4791;47.528;9.372;2023-03-13T13:03:52;1.77;;;0.60;;
9506;SDS011;4791;47.528;9.372;2023-03-13T13:49:32;0.90;;;0.40;;
9506;SDS011;4791;47.528;9.372;2023-03-13T14:35:30;3.08;;;0.98;;
9506;SDS011;4791;47.528;9.372;2023-03-13T14:50:35;1.58;;;0.60;;
9506;SDS011;4791;47.528;9.372;2023-03-13T15:05:35;1.23;;;0.70;;
9506;SDS011;4791;47.528;9.372;2023-03-13T15:20:36;1.55;;;0.65;;
9506;SDS011;4791;47.528;9.372;2023-03-13T15:35:36;1.70;;;0.50;;
9506;SDS011;4791;47.528;9.372;2023-03-13T15:50:36;1.55;;;0.68;;
9506;SDS011;4791;47.528;9.372;2023-03-13T16:05:37;0.90;;;0.60;;
9506;SDS011;4791;47.528;9.372;2023-03-13T16:20:39;1.88;;;0.50;;
9506;SDS011;4791;47.528;9.372;2023-03-13T16:35:42;1.73;;;0.80;;
9506;SDS011;4791;47.528;9.372;2023-03-13T16:50:45;1.50;;;0.60;;
9506;SDS011;4791;47.528;9.372;2023-03-13T17:05:50;0.82;;;0.50;;
9506;SDS011;4791;47.528;9.372;2023-03-13T17:20:53;1.20;;;0.70;;
9506;SDS011;4791;47.528;9.372;2023-03-13T17:35:55;1.85;;;1.00;;
9506;SDS011;4791;47.528;9.372;2023-03-13T17:50:56;3.22;;;1.00;;
9506;SDS011;4791;47.528;9.372;2023-03-13T18:05:59;1.58;;;1.00;;
9506;SDS011;4791;47.528;9.372;2023-03-13T18:21:02;1.60;;;1.10;;
9506;SDS011;4791;47.528;9.372;2023-03-13T18:36:04;2.10;;;1.35;;
9506;SDS011;4791;47.528;9.372;2023-03-13T18:51:16;5.75;;;2.15;;
9506;SDS011;4791;47.528;9.372;2023-03-13T19:21:28;2.63;;;1.55;;
9506;SDS011;4791;47.528;9.372;2023-03-13T21:21:51;3.40;;;1.50;;
9506;SDS011;4791;47.528;9.372;2023-03-13T21:36:51;1.23;;;0.87;;
9506;SDS011;4791;47.528;9.372;2023-03-13T21:51:54;0.83;;;0.80;;
9506;SDS011;4791;47.528;9.372;2023-03-13T22:06:58;0.80;;;0.52;;
9506;SDS011;4791;47.528;9.372;2023-03-13T22:22:01;1.00;;;0.60;;
9506;SDS011;4791;47.528;9.372;2023-03-13T22:37:03;1.70;;;0.70;;
9506;SDS011;4791;47.528;9.372;2023-03-13T22:52:04;1.20;;;0.68;;
9506;SDS011;4791;47.528;9.372;2023-03-13T23:07:07;1.15;;;0.63;;
9506;SDS011;4791;47.528;9.372;2023-03-13T23:22:10;0.98;;;0.65;;
9506;SDS011;4791;47.528;9.372;2023-03-13T23:37:11;2.10;;;0.50;;
